CheckWX is a tool to help pilots better visualize weather data.  It is not intended as a substitute for an official pre-flight weather briefing.

07:41:51 UTC

KAEL METAR
Albert Lea Municipal Airport
Albert Lea, Minnesota, USA
Current

7 mins ago

KAEL 210735Z AUTO 08006KT 10SM CLR 08/05 A3005 RMK AO2
Observed
May-21 @ 07:35 UTC
Wind
  • 080° at 6 KTS
Visibility
10 SM
Flight Rules
VFR
Cloud Levels
  • Clear skies
Temperature
C / 46°F
Dewpoint
C / 41°F
Humidity
82%
Altimeter
30.05" Hg
Pressure
1017.62 hPa
Previous

26 mins ago

KAEL 210716Z AUTO 07004KT 10SM CLR 08/05 A3006 RMK AO2
Observed
May-21 @ 07:16 UTC
Wind
  • 070° at 4 KTS
Visibility
10 SM
Flight Rules
VFR
Cloud Levels
  • Clear skies
Temperature
C / 46°F
Dewpoint
C / 41°F
Humidity
82%
Altimeter
30.06" Hg
Pressure
1017.92 hPa
Previous

46 mins ago

KAEL 210656Z AUTO 09005KT 10SM CLR 09/05 A3007 RMK AO2
Observed
May-21 @ 06:56 UTC
Wind
  • 090° at 5 KTS
Visibility
10 SM
Flight Rules
VFR
Cloud Levels
  • Clear skies
Temperature
C / 48°F
Dewpoint
C / 41°F
Humidity
76%
Altimeter
30.07" Hg
Pressure
1018.32 hPa